createdAt,value
2017-08-04T00:00:32.654Z,85.93
2017-08-04T00:01:33.051Z,86.21
2017-08-04T00:02:32.951Z,86.51
2017-08-04T00:03:32.643Z,86.51
2017-08-04T00:04:32.949Z,86.51
2017-08-04T00:05:33.050Z,86.51
2017-08-04T00:06:33.049Z,86.6
2017-08-04T00:07:32.954Z,86.31
2017-08-04T00:08:32.948Z,86.51
2017-08-04T00:09:32.948Z,86.6
2017-08-04T00:10:32.943Z,86.69
2017-08-04T00:11:33.096Z,86.69
2017-08-04T00:12:32.745Z,87.18
2017-08-04T00:13:32.943Z,87.23
2017-08-04T00:14:32.942Z,87.04
2017-08-04T00:15:32.940Z,87.04
2017-08-04T00:16:32.836Z,86.46
2017-08-04T00:17:32.946Z,87.04
2017-08-04T00:18:33.091Z,87.33
2017-08-04T00:19:32.940Z,86.94
2017-08-04T00:20:32.942Z,87.04
2017-08-04T00:21:33.195Z,87.43
2017-08-04T00:22:32.938Z,87.43
2017-08-04T00:23:32.945Z,87.81
2017-08-04T00:24:33.091Z,87.71
2017-08-04T00:25:32.632Z,87.62
2017-08-04T00:26:33.039Z,87.71
2017-08-04T00:27:32.947Z,87.91
2017-08-04T00:28:32.945Z,87.91
2017-08-04T00:29:33.149Z,87.81
2017-08-04T00:30:32.948Z,87.81
2017-08-04T00:31:32.944Z,87.43
2017-08-04T00:32:32.637Z,87.33
2017-08-04T00:33:32.944Z,87.52
2017-08-04T00:34:32.941Z,87.52
2017-08-04T00:35:32.953Z,87.81
2017-08-04T00:36:32.940Z,87.81
2017-08-04T00:37:32.940Z,87.23
2017-08-04T00:38:33.042Z,87.23
2017-08-04T00:39:32.943Z,87.43
2017-08-04T00:40:32.940Z,87.23
2017-08-04T00:41:33.040Z,87.23
2017-08-04T00:42:32.943Z,87.33
2017-08-04T00:43:32.942Z,87.33
2017-08-04T00:44:32.938Z,87.33
2017-08-04T00:45:32.939Z,87.43
2017-08-04T00:46:32.938Z,87.33
2017-08-04T00:47:32.635Z,87.43
2017-08-04T00:48:32.935Z,87.13
2017-08-04T00:49:32.936Z,87.04
2017-08-04T00:50:32.936Z,87.13
2017-08-04T00:51:32.934Z,87.23
2017-08-04T00:52:32.932Z,87.13
2017-08-04T00:53:32.933Z,87.23
2017-08-04T00:54:32.936Z,87.52
2017-08-04T00:55:32.935Z,87.23
2017-08-04T00:56:32.933Z,87.43
2017-08-04T00:57:32.932Z,87.52
2017-08-04T00:58:32.929Z,87.13
2017-08-04T00:59:32.932Z,87.52
2017-08-04T01:00:32.936Z,87.43
2017-08-04T01:01:33.030Z,87.43
2017-08-04T01:02:32.927Z,87.04
2017-08-04T01:03:32.926Z,87.23
2017-08-04T01:04:32.929Z,87.43
2017-08-04T01:05:32.935Z,87.33
2017-08-04T01:06:32.928Z,87.33
2017-08-04T01:07:33.078Z,87.04
2017-08-04T01:08:32.925Z,87.13
2017-08-04T01:09:32.929Z,87.23
2017-08-04T01:10:32.923Z,87.33
2017-08-04T01:11:32.925Z,87.23
2017-08-04T01:12:32.921Z,87.43
2017-08-04T01:13:32.922Z,87.71
2017-08-04T01:14:32.923Z,87.81
2017-08-04T01:15:32.920Z,87.62
2017-08-04T01:16:33.019Z,87.81
2017-08-04T01:17:33.020Z,87.71
2017-08-04T01:18:32.918Z,87.91
2017-08-04T01:19:32.920Z,88.01
2017-08-04T01:20:32.918Z,88.01
2017-08-04T01:21:32.917Z,88.1
2017-08-04T01:22:33.017Z,87.96
2017-08-04T01:23:32.914Z,88.54
2017-08-04T01:24:33.015Z,88.45
2017-08-04T01:25:32.917Z,88.35
2017-08-04T01:26:32.918Z,88.25
2017-08-04T01:27:32.916Z,88.29
2017-08-04T01:28:32.919Z,88.15
2017-08-04T01:29:32.912Z,88.2
2017-08-04T01:30:32.911Z,88.54
2017-08-04T01:31:32.912Z,88.54
2017-08-04T01:32:32.607Z,88.45
2017-08-04T01:33:33.010Z,88.59
2017-08-04T01:34:32.911Z,88.59
2017-08-04T01:35:32.910Z,88.68
2017-08-04T01:36:32.910Z,88.39
2017-08-04T01:37:32.911Z,88.01
2017-08-04T01:38:32.908Z,87.91
2017-08-04T01:39:32.907Z,88.01
2017-08-04T01:40:32.907Z,87.71
2017-08-04T01:41:32.698Z,87.91
2017-08-04T01:42:32.906Z,87.81
2017-08-04T01:43:32.907Z,88.01
2017-08-04T01:44:32.904Z,87.91
2017-08-04T01:45:32.904Z,87.71
2017-08-04T01:46:32.695Z,87.81
2017-08-04T01:47:32.906Z,87.81
2017-08-04T01:48:32.903Z,87.52
2017-08-04T01:49:32.899Z,87.52
2017-08-04T01:50:32.901Z,87.71
2017-08-04T01:51:33.001Z,87.71
2017-08-04T01:52:32.897Z,87.71
2017-08-04T01:53:32.899Z,87.62
2017-08-04T01:54:33.047Z,87.71
2017-08-04T01:55:32.903Z,87.71
2017-08-04T01:56:32.995Z,87.71
2017-08-04T01:57:32.896Z,87.52
2017-08-04T01:58:32.896Z,87.62
2017-08-04T01:59:32.895Z,88.01
2017-08-04T02:00:32.892Z,87.71
2017-08-04T02:01:32.892Z,87.71
2017-08-04T02:02:32.992Z,87.81
2017-08-04T02:03:32.583Z,88.1
2017-08-04T02:04:32.583Z,88.2
2017-08-04T02:05:32.892Z,87.81
2017-08-04T02:06:32.893Z,87.81
2017-08-04T02:07:32.890Z,87.91
2017-08-04T02:08:32.890Z,87.62
2017-08-04T02:09:32.889Z,87.81
2017-08-04T02:10:32.891Z,87.71
2017-08-04T02:11:32.888Z,87.52
2017-08-04T02:12:32.888Z,87.43
2017-08-04T02:13:32.991Z,87.71
2017-08-04T02:14:32.886Z,87.52
2017-08-04T02:15:32.886Z,87.81
2017-08-04T02:16:32.890Z,87.43
2017-08-04T02:17:32.885Z,87.71
2017-08-04T02:18:32.884Z,87.71
2017-08-04T02:19:32.881Z,87.71
2017-08-04T02:20:32.984Z,87.71
2017-08-04T02:21:32.880Z,87.71
2017-08-04T02:22:32.882Z,87.81
2017-08-04T02:23:32.881Z,87.91
2017-08-04T02:24:32.881Z,87.43
2017-08-04T02:25:32.882Z,87.33
2017-08-04T02:26:32.879Z,87.13
2017-08-04T02:27:32.876Z,87.43
2017-08-04T02:28:32.875Z,87.52
2017-08-04T02:29:33.075Z,87.23
2017-08-04T02:30:32.876Z,87.33
2017-08-04T02:31:32.876Z,87.33
2017-08-04T02:32:32.884Z,87.33
2017-08-04T02:33:32.872Z,86.65
2017-08-04T02:34:32.566Z,86.85
2017-08-04T02:35:32.872Z,86.75
2017-08-04T02:36:32.876Z,86.65
2017-08-04T02:37:32.875Z,86.56
2017-08-04T02:38:32.869Z,86.17
2017-08-04T02:39:32.869Z,85.98
2017-08-04T02:40:32.870Z,86.56
2017-08-04T02:41:32.875Z,86.27
2017-08-04T02:42:32.870Z,86.27
2017-08-04T02:43:32.867Z,86.27
2017-08-04T02:44:32.866Z,86.27
2017-08-04T02:45:32.559Z,86.36
2017-08-04T02:46:32.988Z,86.17
2017-08-04T02:47:32.868Z,86.27
2017-08-04T02:48:32.866Z,86.17
2017-08-04T02:49:32.963Z,86.46
2017-08-04T02:50:32.866Z,86.36
2017-08-04T02:51:32.860Z,86.03
2017-08-04T02:52:32.859Z,86.32
2017-08-04T02:53:32.862Z,86.13
2017-08-04T02:54:32.859Z,86.03
2017-08-04T02:55:32.862Z,86.42
2017-08-04T02:56:32.865Z,86.42
2017-08-04T02:57:32.857Z,86.61
2017-08-04T02:58:32.859Z,86.71
2017-08-04T02:59:32.551Z,86.32
2017-08-04T03:00:32.854Z,86.61
2017-08-04T03:01:32.854Z,86.42
2017-08-04T03:02:32.855Z,87
2017-08-04T03:03:32.855Z,86.52
2017-08-04T03:04:32.853Z,86.61
2017-08-04T03:05:32.853Z,86.8
2017-08-04T03:06:32.853Z,86.71
2017-08-04T03:07:32.852Z,86.85
2017-08-04T03:08:32.952Z,87.19
2017-08-04T03:09:32.853Z,87.09
2017-08-04T03:10:32.852Z,87.09
2017-08-04T03:11:32.850Z,86.8
2017-08-04T03:12:32.849Z,86.9
2017-08-04T03:13:32.850Z,86.65
2017-08-04T03:14:32.847Z,86.13
2017-08-04T03:15:32.848Z,86.22
2017-08-04T03:16:32.847Z,86.22
2017-08-04T03:17:32.843Z,86.22
2017-08-04T03:18:32.944Z,86.22
2017-08-04T03:19:32.849Z,86.42
2017-08-04T03:20:32.840Z,86.22
2017-08-04T03:21:32.840Z,86.61
2017-08-04T03:22:32.840Z,86.42
2017-08-04T03:23:32.942Z,86.42
2017-08-04T03:24:32.837Z,86.52
2017-08-04T03:25:32.838Z,86.36
2017-08-04T03:26:33.040Z,86.36
2017-08-04T03:27:32.837Z,86.17
2017-08-04T03:28:32.839Z,86.13
2017-08-04T03:29:32.840Z,85.94
2017-08-04T03:30:32.839Z,86.32
2017-08-04T03:31:33.038Z,86.22
2017-08-04T03:32:32.837Z,86.03
2017-08-04T03:33:32.837Z,86.22
2017-08-04T03:34:32.859Z,86.22
2017-08-04T03:35:32.931Z,86.22
2017-08-04T03:36:32.832Z,86.22
2017-08-04T03:37:32.831Z,86.22
2017-08-04T03:38:32.522Z,85.55
2017-08-04T03:39:32.979Z,85.55
2017-08-04T03:40:32.830Z,85.55
2017-08-04T03:41:32.832Z,86.03
2017-08-04T03:42:32.826Z,85.94
2017-08-04T03:43:32.825Z,85.64
2017-08-04T03:44:32.852Z,85.64
2017-08-04T03:45:32.927Z,85.45
2017-08-04T03:46:32.828Z,85.45
2017-08-04T03:47:32.828Z,85.55
2017-08-04T03:48:32.824Z,85.94
2017-08-04T03:49:32.820Z,85.45
2017-08-04T03:50:32.823Z,85.74
2017-08-04T03:51:32.923Z,85.26
2017-08-04T03:52:32.819Z,85.16
2017-08-04T03:53:32.818Z,84.68
2017-08-04T03:54:32.816Z,84.48
2017-08-04T03:55:32.816Z,84.68
2017-08-04T03:56:32.818Z,84.3
2017-08-04T03:57:32.815Z,84.3
2017-08-04T03:58:32.815Z,84.48
2017-08-04T03:59:32.818Z,84
2017-08-04T04:00:32.814Z,83.81
2017-08-04T04:01:32.812Z,84
2017-08-04T04:02:32.814Z,84.2
2017-08-04T04:03:32.812Z,84
2017-08-04T04:04:32.810Z,84.2
2017-08-04T04:05:32.814Z,84
2017-08-04T04:06:32.813Z,84.3
2017-08-04T04:07:32.960Z,83.72
2017-08-04T04:08:32.808Z,83.81
2017-08-04T04:09:32.809Z,83.72
2017-08-04T04:10:32.810Z,83.72
2017-08-04T04:11:32.804Z,84.3
2017-08-04T04:12:32.806Z,83.81
2017-08-04T04:13:32.807Z,83.91
2017-08-04T04:14:32.807Z,83.81
2017-08-04T04:15:32.802Z,83.91
2017-08-04T04:16:32.802Z,83.81
2017-08-04T04:17:32.802Z,83.81
2017-08-04T04:18:32.800Z,84.1
2017-08-04T04:19:32.799Z,83.81
2017-08-04T04:20:32.906Z,84.1
2017-08-04T04:21:32.800Z,83.72
2017-08-04T04:22:32.796Z,84.1
2017-08-04T04:23:32.801Z,84.1
2017-08-04T04:24:32.798Z,83.52
2017-08-04T04:25:32.589Z,83.42
2017-08-04T04:26:32.793Z,83.72
2017-08-04T04:27:32.487Z,83.33
2017-08-04T04:28:32.791Z,83.42
2017-08-04T04:29:32.799Z,83.81
2017-08-04T04:30:32.808Z,83.62
2017-08-04T04:31:32.790Z,83.72
2017-08-04T04:32:32.942Z,83.42
2017-08-04T04:33:32.796Z,83.42
2017-08-04T04:34:32.789Z,82.65
2017-08-04T04:35:32.787Z,82.94
2017-08-04T04:36:32.789Z,82.84
2017-08-04T04:37:32.889Z,82.46
2017-08-04T04:38:32.785Z,82.46
2017-08-04T04:39:32.785Z,82.36
2017-08-04T04:40:32.788Z,82.75
2017-08-04T04:41:32.883Z,82.65
2017-08-04T04:42:32.784Z,82.75
2017-08-04T04:43:32.910Z,82.46
2017-08-04T04:44:32.784Z,82.26
2017-08-04T04:45:32.783Z,82.26
2017-08-04T04:46:32.782Z,82.07
2017-08-04T04:47:32.782Z,81.88
2017-08-04T04:48:32.778Z,81.92
2017-08-04T04:49:32.777Z,81.98
2017-08-04T04:50:32.777Z,82.07
2017-08-04T04:51:32.470Z,81.98
2017-08-04T04:52:32.778Z,82.17
2017-08-04T04:53:32.780Z,81.98
2017-08-04T04:54:32.774Z,82.17
2017-08-04T04:55:32.874Z,81.68
2017-08-04T04:56:32.775Z,81.88
2017-08-04T04:57:32.466Z,81.88
2017-08-04T04:58:32.770Z,81.88
2017-08-04T04:59:32.771Z,81.68
2017-08-04T05:00:32.462Z,81.68
2017-08-04T05:01:32.768Z,81.3
2017-08-04T05:02:32.766Z,81.63
2017-08-04T05:03:32.767Z,81.73
2017-08-04T05:04:32.769Z,80.91
2017-08-04T05:05:32.767Z,81.4
2017-08-04T05:06:32.764Z,81.34
2017-08-04T05:07:32.916Z,81.34
2017-08-04T05:08:32.768Z,81.24
2017-08-04T05:09:32.458Z,81.44
2017-08-04T05:10:32.456Z,81.44
2017-08-04T05:11:32.760Z,81.05
2017-08-04T05:12:32.764Z,81.44
2017-08-04T05:13:32.759Z,81.24
2017-08-04T05:14:32.756Z,80.66
2017-08-04T05:15:32.861Z,80.57
2017-08-04T05:16:32.758Z,80.38
2017-08-04T05:17:32.761Z,80.28
2017-08-04T05:18:32.755Z,79.64
2017-08-04T05:19:32.778Z,79.83
2017-08-04T05:20:32.752Z,79.22
2017-08-04T05:21:32.755Z,79.35
2017-08-04T05:22:32.759Z,79.45
2017-08-04T05:23:32.447Z,79.25
2017-08-04T05:24:32.859Z,79.06
2017-08-04T05:25:32.751Z,78.96
2017-08-04T05:26:32.753Z,78.87
2017-08-04T05:27:32.752Z,78.77
2017-08-04T05:28:32.750Z,78.67
2017-08-04T05:29:32.747Z,78.58
2017-08-04T05:30:32.749Z,78.67
2017-08-04T05:31:32.747Z,78.09
2017-08-04T05:32:32.748Z,77.8
2017-08-04T05:33:32.442Z,78.19
2017-08-04T05:34:32.743Z,78
2017-08-04T05:35:32.748Z,78
2017-08-04T05:36:32.746Z,78.09
2017-08-04T05:37:32.745Z,78.38
2017-08-04T05:38:32.895Z,78.09
2017-08-04T05:39:32.434Z,77.71
2017-08-04T05:40:32.745Z,78
2017-08-04T05:41:32.774Z,78.09
2017-08-04T05:42:32.741Z,77.9
2017-08-04T05:43:32.889Z,77.8
2017-08-04T05:44:32.430Z,78
2017-08-04T05:45:32.737Z,77.71
2017-08-04T05:46:32.745Z,77.71
2017-08-04T05:47:32.737Z,77.61
2017-08-04T05:48:32.738Z,78
2017-08-04T05:49:32.738Z,78.09
2017-08-04T05:50:32.737Z,78.19
2017-08-04T05:51:32.735Z,78.09
2017-08-04T05:52:32.882Z,78.19
2017-08-04T05:53:32.745Z,78
2017-08-04T05:54:32.742Z,77.9
2017-08-04T05:55:32.732Z,77.71
2017-08-04T05:56:32.736Z,77.32
2017-08-04T05:57:32.730Z,76.93
2017-08-04T05:58:32.423Z,77.07
2017-08-04T05:59:32.725Z,77.13
2017-08-04T06:00:32.720Z,76.87
2017-08-04T06:01:32.723Z,76.49
2017-08-04T06:02:32.723Z,76.39
2017-08-04T06:03:32.820Z,76.49
2017-08-04T06:04:32.729Z,76.01
2017-08-04T06:05:32.721Z,75.33
2017-08-04T06:06:32.720Z,75.46
2017-08-04T06:07:32.821Z,74.88
2017-08-04T06:08:32.720Z,75.07
2017-08-04T06:09:32.722Z,74.79
2017-08-04T06:10:32.719Z,74.4
2017-08-04T06:11:32.718Z,74.59
2017-08-04T06:12:32.722Z,74.63
2017-08-04T06:13:32.717Z,74.43
2017-08-04T06:14:32.716Z,73.75
2017-08-04T06:15:32.715Z,73.11
2017-08-04T06:16:32.717Z,72.92
2017-08-04T06:17:32.723Z,72.63
2017-08-04T06:18:32.716Z,71.99
2017-08-04T06:19:32.714Z,71.41
2017-08-04T06:20:32.712Z,71.02
2017-08-04T06:21:32.717Z,70.54
2017-08-04T06:22:32.817Z,70.34
2017-08-04T06:23:32.715Z,70.05
2017-08-04T06:24:32.717Z,69.95
2017-08-04T06:25:32.715Z,69.95
2017-08-04T06:26:32.814Z,69.67
2017-08-04T06:27:32.715Z,69.18
2017-08-04T06:28:32.713Z,69.37
2017-08-04T06:29:32.509Z,69.37
2017-08-04T06:30:32.714Z,69.47
2017-08-04T06:31:32.817Z,68.89
2017-08-04T06:32:32.714Z,69.18
2017-08-04T06:33:32.713Z,68.34
2017-08-04T06:34:32.810Z,68.63
2017-08-04T06:35:32.714Z,68.44
2017-08-04T06:36:32.815Z,67.69
2017-08-04T06:37:32.711Z,67.14
2017-08-04T06:38:32.712Z,65.82
2017-08-04T06:39:32.812Z,64.78
2017-08-04T06:40:32.713Z,64.04
2017-08-04T06:41:32.715Z,63.65
2017-08-04T06:42:32.810Z,63.17
2017-08-04T06:43:32.715Z,62.94
2017-08-04T06:44:32.715Z,63.1
2017-08-04T06:45:32.406Z,63.1
2017-08-04T06:46:32.409Z,63.17
2017-08-04T06:47:32.715Z,63.26
2017-08-04T06:48:32.716Z,63.26
2017-08-04T06:49:32.716Z,63.23
2017-08-04T06:50:32.718Z,63.53
2017-08-04T06:51:32.864Z,63.78
2017-08-04T06:52:32.716Z,63.98
2017-08-04T06:53:32.719Z,63.98
2017-08-04T06:54:32.715Z,64.07
2017-08-04T06:55:32.716Z,64.17
2017-08-04T06:56:32.721Z,64.17
2017-08-04T06:57:32.719Z,63.98
2017-08-04T06:58:32.818Z,64.17
2017-08-04T06:59:32.719Z,64.17
2017-08-04T07:00:32.719Z,64.07
2017-08-04T07:01:32.413Z,64.65
2017-08-04T07:02:32.873Z,64.56
2017-08-04T07:03:32.717Z,64.65
2017-08-04T07:04:32.413Z,64.47
2017-08-04T07:05:32.721Z,64.85
2017-08-04T07:06:32.411Z,64.95
2017-08-04T07:07:32.414Z,65.24
2017-08-04T07:08:32.415Z,65.05
2017-08-04T07:09:32.721Z,65.14
2017-08-04T07:10:32.816Z,65.14
2017-08-04T07:11:32.410Z,65.34
2017-08-04T07:12:32.821Z,65.05
2017-08-04T07:13:32.720Z,65.14
2017-08-04T07:14:32.513Z,65.14
2017-08-04T07:15:32.413Z,64.85
2017-08-04T07:16:32.721Z,64.75
2017-08-04T07:17:32.874Z,64.27
2017-08-04T07:18:32.412Z,63.98
2017-08-04T07:19:32.714Z,63.82
2017-08-04T07:20:32.722Z,63.72
2017-08-04T07:21:32.717Z,63.78
2017-08-04T07:22:32.414Z,63.3
2017-08-04T07:23:32.720Z,63.62
2017-08-04T07:24:32.722Z,63.91
2017-08-04T07:25:32.416Z,63.49
2017-08-04T07:26:32.421Z,63.13
2017-08-04T07:27:32.417Z,63.04
2017-08-04T07:28:32.922Z,63.82
2017-08-04T07:29:32.416Z,63.3
2017-08-04T07:30:32.721Z,63.88
2017-08-04T07:31:32.870Z,63.1
2017-08-04T07:32:32.416Z,63.3
2017-08-04T07:33:32.616Z,63.53
2017-08-04T07:34:32.717Z,63.33
2017-08-04T07:35:32.719Z,63.69
2017-08-04T07:36:32.723Z,63.69
2017-08-04T07:37:32.414Z,63.4
2017-08-04T07:38:32.921Z,62.91
2017-08-04T07:39:32.719Z,63.33
2017-08-04T07:40:32.416Z,62.85
2017-08-04T07:41:32.824Z,63.33
2017-08-04T07:42:32.723Z,63.33
2017-08-04T07:43:32.418Z,63.04
2017-08-04T07:44:32.417Z,63.62
2017-08-04T07:45:32.418Z,63.53
2017-08-04T07:46:32.517Z,63.59
2017-08-04T07:47:32.418Z,63.33
2017-08-04T07:48:32.735Z,63.69
2017-08-04T07:49:32.565Z,63.43
2017-08-04T07:50:32.721Z,63.2
2017-08-04T07:51:32.413Z,63.04
2017-08-04T07:52:32.514Z,62.95
2017-08-04T07:53:32.419Z,62.43
2017-08-04T07:54:32.414Z,61.39
2017-08-04T07:55:32.416Z,60.81
2017-08-04T07:56:32.721Z,60.58
2017-08-04T07:57:32.872Z,61.17
2017-08-04T07:58:32.718Z,60.68
2017-08-04T07:59:32.723Z,61.26
2017-08-04T08:00:32.720Z,61.26
2017-08-04T08:01:32.416Z,60.97
2017-08-04T08:02:32.728Z,61.07
2017-08-04T08:03:32.513Z,61.55
2017-08-04T08:04:32.719Z,61.46
2017-08-04T08:05:32.617Z,61.26
2017-08-04T08:06:32.719Z,61.36
2017-08-04T08:07:32.665Z,61.55
2017-08-04T08:08:32.722Z,61.46
2017-08-04T08:09:32.729Z,61.46
2017-08-04T08:10:32.720Z,61.26
2017-08-04T08:11:32.720Z,61.46
2017-08-04T08:12:32.721Z,61.85
2017-08-04T08:13:32.718Z,61.85
2017-08-04T08:14:32.417Z,62.04
2017-08-04T08:15:32.722Z,61.36
2017-08-04T08:16:32.719Z,61.36
2017-08-04T08:17:32.720Z,61.43
2017-08-04T08:18:32.718Z,61.33
2017-08-04T08:19:32.414Z,61.33
2017-08-04T08:20:32.717Z,61.82
2017-08-04T08:21:32.719Z,62.3
2017-08-04T08:22:32.723Z,62.4
2017-08-04T08:23:32.727Z,63.07
2017-08-04T08:24:32.725Z,63.17
2017-08-04T08:25:32.725Z,62.98
2017-08-04T08:26:32.746Z,63.56
2017-08-04T08:27:32.417Z,63.34
2017-08-04T08:28:32.723Z,63.24
2017-08-04T08:29:32.721Z,63.34
2017-08-04T08:30:32.724Z,63.62
2017-08-04T08:31:32.726Z,63.24
2017-08-04T08:32:32.722Z,63.72
2017-08-04T08:33:32.822Z,63.34
2017-08-04T08:34:32.415Z,63.72
2017-08-04T08:35:32.725Z,63.17
2017-08-04T08:36:32.721Z,62.95
2017-08-04T08:37:32.721Z,63.17
2017-08-04T08:38:32.821Z,63.27
2017-08-04T08:39:32.722Z,62.88
2017-08-04T08:40:32.721Z,62.85
2017-08-04T08:41:32.721Z,62.85
2017-08-04T08:42:32.722Z,63.04
2017-08-04T08:43:32.727Z,62.98
2017-08-04T08:44:32.414Z,63.07
2017-08-04T08:45:32.722Z,63.07
2017-08-04T08:46:32.410Z,63.34
2017-08-04T08:47:32.721Z,62.79
2017-08-04T08:48:32.720Z,63.17
2017-08-04T08:49:32.718Z,62.79
2017-08-04T08:50:32.919Z,63.46
2017-08-04T08:51:32.719Z,63.65
2017-08-04T08:52:32.720Z,62.59
2017-08-04T08:53:32.717Z,63.07
2017-08-04T08:54:32.869Z,63.37
2017-08-04T08:55:32.722Z,63.27
2017-08-04T08:56:32.717Z,63.07
2017-08-04T08:57:32.814Z,62.79
2017-08-04T08:58:32.411Z,62.98
2017-08-04T08:59:32.719Z,62.91
2017-08-04T09:00:32.715Z,62.72
2017-08-04T09:01:32.719Z,62.52
2017-08-04T09:02:32.416Z,62.62
2017-08-04T09:03:32.413Z,62.23
2017-08-04T09:04:32.715Z,62.04
2017-08-04T09:05:32.822Z,61.94
2017-08-04T09:06:32.718Z,61.36
2017-08-04T09:07:32.722Z,61.46
2017-08-04T09:08:32.722Z,61.46
2017-08-04T09:09:32.714Z,61.17
2017-08-04T09:10:32.410Z,61.1
2017-08-04T09:11:32.715Z,60.81
2017-08-04T09:12:32.822Z,61.1
2017-08-04T09:13:32.715Z,60.81
2017-08-04T09:14:32.716Z,60.61
2017-08-04T09:15:32.717Z,59.87
2017-08-04T09:16:32.411Z,60.13
2017-08-04T09:17:32.715Z,60.16
2017-08-04T09:18:32.720Z,59.19
2017-08-04T09:19:32.917Z,59.48
2017-08-04T09:20:32.719Z,59.09
2017-08-04T09:21:32.718Z,59
2017-08-04T09:22:32.719Z,59.28
2017-08-04T09:23:32.720Z,59.38
2017-08-04T09:24:32.719Z,58.73
2017-08-04T09:25:32.717Z,58.9
2017-08-04T09:26:32.817Z,58.9
2017-08-04T09:27:32.719Z,59.38
2017-08-04T09:28:32.718Z,59.16
2017-08-04T09:29:32.721Z,59.84
2017-08-04T09:30:32.722Z,60.23
2017-08-04T09:31:32.723Z,60.16
2017-08-04T09:32:32.717Z,59.94
2017-08-04T09:33:32.716Z,59.28
2017-08-04T09:34:32.718Z,59.74
2017-08-04T09:35:32.723Z,60.06
2017-08-04T09:36:32.818Z,59.84
2017-08-04T09:37:32.719Z,60.03
2017-08-04T09:38:32.735Z,60.25
2017-08-04T09:39:32.721Z,60.25
2017-08-04T09:40:32.815Z,60.32
2017-08-04T09:41:32.719Z,60.13
2017-08-04T09:42:32.722Z,60.16
2017-08-04T09:43:32.721Z,60.06
2017-08-04T09:44:32.718Z,59.9
2017-08-04T09:45:32.724Z,59.8
2017-08-04T09:46:32.719Z,59.51
2017-08-04T09:47:32.415Z,59.03
2017-08-04T09:48:32.722Z,59.25
2017-08-04T09:49:32.722Z,58.95
2017-08-04T09:50:32.726Z,58.76
2017-08-04T09:51:32.875Z,58.08
2017-08-04T09:52:32.721Z,58.18
2017-08-04T09:53:32.719Z,58.18
2017-08-04T09:54:32.721Z,58.37
2017-08-04T09:55:32.720Z,57.98
2017-08-04T09:56:32.725Z,57.79
2017-08-04T09:57:32.724Z,58.01
2017-08-04T09:58:32.722Z,57.43
2017-08-04T09:59:32.722Z,57.14
2017-08-04T10:00:32.873Z,57.14
2017-08-04T10:01:32.723Z,57.33
2017-08-04T10:02:32.419Z,57.33
2017-08-04T10:03:32.723Z,57.53
2017-08-04T10:04:32.721Z,57.62
2017-08-04T10:05:32.727Z,57.62
2017-08-04T10:06:32.726Z,57.72
2017-08-04T10:07:32.732Z,57.53
2017-08-04T10:08:32.728Z,57.33
2017-08-04T10:09:32.725Z,57.82
2017-08-04T10:10:32.723Z,58.21
2017-08-04T10:11:32.730Z,57.33
2017-08-04T10:12:32.830Z,56.43
2017-08-04T10:13:32.725Z,55.75
2017-08-04T10:14:32.727Z,55.73
2017-08-04T10:15:32.729Z,55.33
2017-08-04T10:16:32.428Z,55.43
2017-08-04T10:17:32.831Z,55.43
2017-08-04T10:18:32.731Z,55.92
2017-08-04T10:19:32.826Z,55.14
2017-08-04T10:20:32.728Z,55.24
2017-08-04T10:21:32.729Z,55.53
2017-08-04T10:22:32.729Z,55.14
2017-08-04T10:23:32.737Z,54.36
2017-08-04T10:24:32.828Z,54.94
2017-08-04T10:25:32.729Z,55.14
2017-08-04T10:26:32.731Z,55.33
2017-08-04T10:27:32.729Z,55.82
2017-08-04T10:28:32.729Z,55.79
2017-08-04T10:29:32.729Z,55.5
2017-08-04T10:30:32.835Z,55.69
2017-08-04T10:31:32.730Z,56.28
2017-08-04T10:32:32.730Z,56.57
2017-08-04T10:33:32.732Z,56.37
2017-08-04T10:34:32.733Z,56.67
2017-08-04T10:35:32.832Z,56.98
2017-08-04T10:36:32.733Z,56.79
2017-08-04T10:37:32.734Z,56.79
2017-08-04T10:38:32.734Z,56.89
2017-08-04T10:39:32.734Z,56.89
2017-08-04T10:40:32.834Z,57.01
2017-08-04T10:41:32.735Z,56.14
2017-08-04T10:42:32.732Z,55.65
2017-08-04T10:43:32.983Z,56.34
2017-08-04T10:44:32.836Z,56.43
2017-08-04T10:45:32.737Z,56.26
2017-08-04T10:46:32.734Z,56.16
2017-08-04T10:47:32.734Z,55.29
2017-08-04T10:48:32.835Z,55.22
2017-08-04T10:49:32.736Z,54.15
2017-08-04T10:50:32.735Z,54.18
2017-08-04T10:51:32.740Z,53.89
2017-08-04T10:52:32.739Z,53.5
2017-08-04T10:53:32.737Z,52.43
2017-08-04T10:54:32.737Z,52.75
2017-08-04T10:55:32.736Z,52.84
2017-08-04T10:56:32.838Z,52.55
2017-08-04T10:57:32.533Z,52.55
2017-08-04T10:58:32.738Z,53.04
2017-08-04T10:59:32.745Z,51.87
2017-08-04T11:00:32.837Z,51.7
2017-08-04T11:01:32.743Z,50.73
2017-08-04T11:02:32.746Z,50.63
2017-08-04T11:03:32.744Z,49.58
2017-08-04T11:04:32.744Z,49.88
2017-08-04T11:05:32.850Z,50.16
2017-08-04T11:06:32.438Z,50.16
2017-08-04T11:07:32.744Z,49.68
2017-08-04T11:08:32.744Z,49.29
2017-08-04T11:09:32.748Z,49.58
2017-08-04T11:10:32.951Z,49
2017-08-04T11:11:32.764Z,49.1
2017-08-04T11:12:32.750Z,49
2017-08-04T11:13:32.753Z,49.1
2017-08-04T11:14:32.753Z,47.56
2017-08-04T11:15:32.752Z,48.34
2017-08-04T11:16:32.857Z,48.24
2017-08-04T11:17:32.753Z,48.24
2017-08-04T11:18:32.753Z,47.75
2017-08-04T11:19:32.754Z,46.78
2017-08-04T11:20:32.757Z,47.17
2017-08-04T11:21:32.452Z,46.37
2017-08-04T11:22:32.452Z,46.66
2017-08-04T11:23:32.760Z,46.37
2017-08-04T11:24:32.760Z,46.95
2017-08-04T11:25:32.757Z,47.34
2017-08-04T11:26:32.459Z,46.76
2017-08-04T11:27:32.783Z,46.76
2017-08-04T11:28:32.867Z,46.47
2017-08-04T11:29:32.966Z,46.95
2017-08-04T11:30:32.767Z,46.44
2017-08-04T11:31:32.769Z,46.76
2017-08-04T11:32:32.766Z,46.86
2017-08-04T11:33:32.768Z,47.32
2017-08-04T11:34:32.768Z,47.61
2017-08-04T11:35:32.465Z,47.8
2017-08-04T11:36:32.773Z,47.9
2017-08-04T11:37:32.768Z,48.1
2017-08-04T11:38:32.768Z,48.88
2017-08-04T11:39:32.770Z,48.19
2017-08-04T11:40:32.772Z,47.71
2017-08-04T11:41:32.777Z,47.52
2017-08-04T11:42:32.777Z,48
2017-08-04T11:43:32.774Z,48
2017-08-04T11:44:32.774Z,47.9
2017-08-04T11:45:32.780Z,47.42
2017-08-04T11:46:32.778Z,47.03
2017-08-04T11:47:32.785Z,47.13
2017-08-04T11:48:32.882Z,46.93
2017-08-04T11:49:32.880Z,46.83
2017-08-04T11:50:32.782Z,47.13
2017-08-04T11:51:32.785Z,46.44
2017-08-04T11:52:32.781Z,45.76
2017-08-04T11:53:32.780Z,46.05
2017-08-04T11:54:32.783Z,45.95
2017-08-04T11:55:32.784Z,45.86
2017-08-04T11:56:32.781Z,46.08
2017-08-04T11:57:32.891Z,45.88
2017-08-04T11:58:32.787Z,46.49
2017-08-04T11:59:32.886Z,45.9
2017-08-04T12:00:32.810Z,45.32
2017-08-04T12:01:32.786Z,45.71
2017-08-04T12:02:32.885Z,45.42
2017-08-04T12:03:32.787Z,45.81
2017-08-04T12:04:32.791Z,45.61
2017-08-04T12:05:32.891Z,45.34
2017-08-04T12:06:32.794Z,45.64
2017-08-04T12:07:32.791Z,45.54
2017-08-04T12:08:32.484Z,45.73
2017-08-04T12:09:32.793Z,45.75
2017-08-04T12:10:32.794Z,45.36
2017-08-04T12:11:32.793Z,44.97
2017-08-04T12:12:32.897Z,44.58
2017-08-04T12:13:32.799Z,44.29
2017-08-04T12:14:32.947Z,44.46
2017-08-04T12:15:32.797Z,44.27
2017-08-04T12:16:32.490Z,44.07
2017-08-04T12:17:32.494Z,44.07
2017-08-04T12:18:32.797Z,44.17
2017-08-04T12:19:33.152Z,43.98
2017-08-04T12:20:32.803Z,44.17
2017-08-04T12:21:32.805Z,44.27
2017-08-04T12:22:32.803Z,43.68
2017-08-04T12:23:32.809Z,44.07
2017-08-04T12:24:32.806Z,44.37
2017-08-04T12:25:32.497Z,44.27
2017-08-04T12:26:32.811Z,44.37
2017-08-04T12:27:32.806Z,44.27
2017-08-04T12:28:32.806Z,44.66
2017-08-04T12:29:32.807Z,44.37
2017-08-04T12:30:32.810Z,44.46
2017-08-04T12:31:32.811Z,44.37
2017-08-04T12:32:32.911Z,44.46
2017-08-04T12:33:32.503Z,44.27
2017-08-04T12:34:32.814Z,43.78
2017-08-04T12:35:32.817Z,43.49
2017-08-04T12:36:32.811Z,43.19
2017-08-04T12:37:32.818Z,42.8
2017-08-04T12:38:32.819Z,42.32
2017-08-04T12:39:32.816Z,42.02
2017-08-04T12:40:32.815Z,42.41
2017-08-04T12:41:32.927Z,42.2
2017-08-04T12:42:32.823Z,42.49
2017-08-04T12:43:32.820Z,42.79
2017-08-04T12:44:32.510Z,43.27
2017-08-04T12:45:32.825Z,43.35
2017-08-04T12:46:32.929Z,43.35
2017-08-04T12:47:33.070Z,43.25
2017-08-04T12:48:32.821Z,43.64
2017-08-04T12:49:32.822Z,43.74
2017-08-04T12:50:32.820Z,43.54
2017-08-04T12:51:32.825Z,44.23
2017-08-04T12:52:32.929Z,44.32
2017-08-04T12:53:32.826Z,44.23
2017-08-04T12:54:32.827Z,44.03
2017-08-04T12:55:32.526Z,43.93